sensor_id;sensor_type;location;lat;lon;timestamp;P1;durP1;ratioP1;P2;durP2;ratioP2
43226;SDS011;28839;52.404;9.808;2022-08-19T00:05:29;13.10;;;8.68;;
43226;SDS011;28839;52.404;9.808;2022-08-19T00:12:25;12.40;;;8.88;;
43226;SDS011;28839;52.404;9.808;2022-08-19T00:19:19;12.35;;;9.20;;
43226;SDS011;28839;52.404;9.808;2022-08-19T00:26:13;13.27;;;9.60;;
43226;SDS011;28839;52.404;9.808;2022-08-19T00:33:09;13.82;;;9.40;;
43226;SDS011;28839;52.404;9.808;2022-08-19T00:40:03;13.27;;;9.18;;
43226;SDS011;28839;52.404;9.808;2022-08-19T00:46:59;11.98;;;8.48;;
43226;SDS011;28839;52.404;9.808;2022-08-19T00:53:54;11.23;;;8.70;;
43226;SDS011;28839;52.404;9.808;2022-08-19T01:00:50;14.57;;;9.18;;
43226;SDS011;28839;52.404;9.808;2022-08-19T01:07:43;11.75;;;9.75;;
43226;SDS011;28839;52.404;9.808;2022-08-19T01:21:34;11.75;;;10.52;;
43226;SDS011;28839;52.404;9.808;2022-08-19T01:28:35;14.68;;;11.20;;
43226;SDS011;28839;52.404;9.808;2022-08-19T01:35:30;11.70;;;9.27;;
43226;SDS011;28839;52.404;9.808;2022-08-19T01:42:25;14.77;;;10.25;;
43226;SDS011;28839;52.404;9.808;2022-08-19T01:49:21;13.73;;;10.43;;
43226;SDS011;28839;52.404;9.808;2022-08-19T01:56:16;13.25;;;10.52;;
43226;SDS011;28839;52.404;9.808;2022-08-19T02:03:11;13.18;;;11.20;;
43226;SDS011;28839;52.404;9.808;2022-08-19T02:10:12;21.45;;;12.98;;
43226;SDS011;28839;52.404;9.808;2022-08-19T02:17:07;17.62;;;12.10;;
43226;SDS011;28839;52.404;9.808;2022-08-19T02:24:02;19.95;;;11.68;;
43226;SDS011;28839;52.404;9.808;2022-08-19T02:30:57;13.50;;;11.15;;
43226;SDS011;28839;52.404;9.808;2022-08-19T02:37:52;14.70;;;10.75;;
43226;SDS011;28839;52.404;9.808;2022-08-19T02:45:04;19.92;;;11.77;;
43226;SDS011;28839;52.404;9.808;2022-08-19T02:52:01;14.57;;;10.13;;
43226;SDS011;28839;52.404;9.808;2022-08-19T02:58:56;12.73;;;9.88;;
43226;SDS011;28839;52.404;9.808;2022-08-19T03:05:50;13.45;;;9.55;;
43226;SDS011;28839;52.404;9.808;2022-08-19T03:12:46;15.35;;;8.82;;
43226;SDS011;28839;52.404;9.808;2022-08-19T03:19:39;10.32;;;8.27;;
43226;SDS011;28839;52.404;9.808;2022-08-19T03:26:37;11.73;;;8.55;;
43226;SDS011;28839;52.404;9.808;2022-08-19T03:33:33;9.82;;;7.95;;
43226;SDS011;28839;52.404;9.808;2022-08-19T03:40:27;14.02;;;8.68;;
43226;SDS011;28839;52.404;9.808;2022-08-19T03:47:22;12.82;;;9.35;;
43226;SDS011;28839;52.404;9.808;2022-08-19T03:54:19;10.30;;;8.82;;
43226;SDS011;28839;52.404;9.808;2022-08-19T04:01:17;11.43;;;9.40;;
43226;SDS011;28839;52.404;9.808;2022-08-19T04:08:12;12.02;;;9.25;;
43226;SDS011;28839;52.404;9.808;2022-08-19T04:15:13;11.45;;;8.98;;
43226;SDS011;28839;52.404;9.808;2022-08-19T04:22:07;13.05;;;9.10;;
43226;SDS011;28839;52.404;9.808;2022-08-19T04:29:05;17.95;;;10.00;;
43226;SDS011;28839;52.404;9.808;2022-08-19T04:36:02;12.98;;;9.40;;
43226;SDS011;28839;52.404;9.808;2022-08-19T04:42:56;12.30;;;9.48;;
43226;SDS011;28839;52.404;9.808;2022-08-19T04:49:50;13.90;;;9.43;;
43226;SDS011;28839;52.404;9.808;2022-08-19T04:56:46;14.65;;;9.52;;
43226;SDS011;28839;52.404;9.808;2022-08-19T05:03:41;13.45;;;9.20;;
43226;SDS011;28839;52.404;9.808;2022-08-19T05:10:35;14.50;;;10.63;;
43226;SDS011;28839;52.404;9.808;2022-08-19T05:24:28;13.43;;;10.65;;
43226;SDS011;28839;52.404;9.808;2022-08-19T05:31:26;13.73;;;10.48;;
43226;SDS011;28839;52.404;9.808;2022-08-19T05:38:21;17.67;;;11.05;;
43226;SDS011;28839;52.404;9.808;2022-08-19T05:45:15;14.07;;;11.35;;
43226;SDS011;28839;52.404;9.808;2022-08-19T05:52:11;17.20;;;10.70;;
43226;SDS011;28839;52.404;9.808;2022-08-19T05:59:10;11.55;;;9.63;;
43226;SDS011;28839;52.404;9.808;2022-08-19T06:06:07;12.20;;;10.27;;
43226;SDS011;28839;52.404;9.808;2022-08-19T06:13:02;14.77;;;10.77;;
43226;SDS011;28839;52.404;9.808;2022-08-19T06:19:59;12.18;;;10.98;;
43226;SDS011;28839;52.404;9.808;2022-08-19T06:26:53;15.43;;;10.75;;
43226;SDS011;28839;52.404;9.808;2022-08-19T06:33:48;11.20;;;9.55;;
43226;SDS011;28839;52.404;9.808;2022-08-19T06:40:44;12.75;;;9.63;;
43226;SDS011;28839;52.404;9.808;2022-08-19T06:47:37;12.30;;;9.57;;
43226;SDS011;28839;52.404;9.808;2022-08-19T06:54:31;16.30;;;11.63;;
43226;SDS011;28839;52.404;9.808;2022-08-19T07:01:27;13.88;;;10.95;;
43226;SDS011;28839;52.404;9.808;2022-08-19T07:08:21;14.57;;;11.27;;
43226;SDS011;28839;52.404;9.808;2022-08-19T07:15:19;18.65;;;11.02;;
43226;SDS011;28839;52.404;9.808;2022-08-19T07:29:08;15.15;;;12.32;;
43226;SDS011;28839;52.404;9.808;2022-08-19T07:36:03;16.98;;;14.77;;
43226;SDS011;28839;52.404;9.808;2022-08-19T07:42:59;17.40;;;13.60;;
43226;SDS011;28839;52.404;9.808;2022-08-19T07:49:53;18.92;;;14.68;;
43226;SDS011;28839;52.404;9.808;2022-08-19T07:56:47;18.23;;;15.35;;
43226;SDS011;28839;52.404;9.808;2022-08-19T08:03:43;20.95;;;15.70;;
43226;SDS011;28839;52.404;9.808;2022-08-19T08:10:55;17.95;;;13.13;;
43226;SDS011;28839;52.404;9.808;2022-08-19T08:17:49;18.05;;;14.57;;
43226;SDS011;28839;52.404;9.808;2022-08-19T08:24:44;17.87;;;13.52;;
43226;SDS011;28839;52.404;9.808;2022-08-19T08:31:39;17.50;;;12.23;;
43226;SDS011;28839;52.404;9.808;2022-08-19T08:38:36;10.93;;;9.77;;
43226;SDS011;28839;52.404;9.808;2022-08-19T08:45:35;9.95;;;8.95;;
43226;SDS011;28839;52.404;9.808;2022-08-19T08:52:35;10.27;;;9.23;;
43226;SDS011;28839;52.404;9.808;2022-08-19T08:59:34;8.63;;;7.82;;
43226;SDS011;28839;52.404;9.808;2022-08-19T09:06:46;9.05;;;8.15;;
43226;SDS011;28839;52.404;9.808;2022-08-19T09:13:53;10.77;;;8.82;;
43226;SDS011;28839;52.404;9.808;2022-08-19T09:20:55;10.63;;;9.18;;
43226;SDS011;28839;52.404;9.808;2022-08-19T09:34:46;8.45;;;7.45;;
43226;SDS011;28839;52.404;9.808;2022-08-19T09:41:40;9.82;;;8.73;;
43226;SDS011;28839;52.404;9.808;2022-08-19T09:55:29;8.40;;;7.35;;
43226;SDS011;28839;52.404;9.808;2022-08-19T10:09:18;8.70;;;6.77;;
43226;SDS011;28839;52.404;9.808;2022-08-19T10:16:12;8.52;;;7.62;;
43226;SDS011;28839;52.404;9.808;2022-08-19T10:23:07;7.97;;;6.97;;
43226;SDS011;28839;52.404;9.808;2022-08-19T10:30:03;11.00;;;6.60;;
43226;SDS011;28839;52.404;9.808;2022-08-19T10:36:58;8.10;;;7.00;;
43226;SDS011;28839;52.404;9.808;2022-08-19T10:43:53;8.48;;;6.57;;
43226;SDS011;28839;52.404;9.808;2022-08-19T10:50:51;7.37;;;6.40;;
43226;SDS011;28839;52.404;9.808;2022-08-19T10:58:03;7.87;;;6.53;;
43226;SDS011;28839;52.404;9.808;2022-08-19T11:04:56;8.57;;;6.62;;
43226;SDS011;28839;52.404;9.808;2022-08-19T11:11:52;8.50;;;6.05;;
43226;SDS011;28839;52.404;9.808;2022-08-19T11:18:49;5.40;;;4.85;;
43226;SDS011;28839;52.404;9.808;2022-08-19T11:25:50;6.85;;;4.93;;
43226;SDS011;28839;52.404;9.808;2022-08-19T11:32:46;8.30;;;5.68;;
43226;SDS011;28839;52.404;9.808;2022-08-19T11:39:40;6.72;;;5.25;;
43226;SDS011;28839;52.404;9.808;2022-08-19T11:46:34;4.55;;;4.15;;
43226;SDS011;28839;52.404;9.808;2022-08-19T11:53:30;5.40;;;4.20;;
43226;SDS011;28839;52.404;9.808;2022-08-19T12:00:24;6.43;;;5.07;;
43226;SDS011;28839;52.404;9.808;2022-08-19T12:07:18;4.85;;;4.40;;
43226;SDS011;28839;52.404;9.808;2022-08-19T12:14:14;5.68;;;4.00;;
43226;SDS011;28839;52.404;9.808;2022-08-19T12:21:08;3.65;;;3.35;;
43226;SDS011;28839;52.404;9.808;2022-08-19T12:28:04;4.45;;;3.10;;
43226;SDS011;28839;52.404;9.808;2022-08-19T12:34:59;4.62;;;3.25;;
43226;SDS011;28839;52.404;9.808;2022-08-19T12:41:53;5.45;;;3.03;;
43226;SDS011;28839;52.404;9.808;2022-08-19T12:48:47;3.83;;;3.00;;
43226;SDS011;28839;52.404;9.808;2022-08-19T12:55:43;4.82;;;2.78;;
43226;SDS011;28839;52.404;9.808;2022-08-19T13:02:37;5.57;;;3.12;;
43226;SDS011;28839;52.404;9.808;2022-08-19T13:09:31;3.30;;;3.00;;
43226;SDS011;28839;52.404;9.808;2022-08-19T13:16:26;10.63;;;3.35;;
43226;SDS011;28839;52.404;9.808;2022-08-19T13:23:20;5.32;;;3.58;;
43226;SDS011;28839;52.404;9.808;2022-08-19T13:30:14;4.20;;;2.65;;
43226;SDS011;28839;52.404;9.808;2022-08-19T13:37:28;3.30;;;2.97;;
43226;SDS011;28839;52.404;9.808;2022-08-19T13:44:34;3.03;;;2.70;;
43226;SDS011;28839;52.404;9.808;2022-08-19T13:51:28;4.15;;;2.17;;
43226;SDS011;28839;52.404;9.808;2022-08-19T13:58:23;4.28;;;2.20;;
43226;SDS011;28839;52.404;9.808;2022-08-19T14:05:17;4.80;;;2.12;;
43226;SDS011;28839;52.404;9.808;2022-08-19T14:12:11;3.97;;;2.37;;
43226;SDS011;28839;52.404;9.808;2022-08-19T14:19:07;2.87;;;2.40;;
43226;SDS011;28839;52.404;9.808;2022-08-19T14:26:04;2.30;;;2.10;;
43226;SDS011;28839;52.404;9.808;2022-08-19T14:33:01;2.87;;;2.05;;
43226;SDS011;28839;52.404;9.808;2022-08-19T14:39:58;5.12;;;1.80;;
43226;SDS011;28839;52.404;9.808;2022-08-19T14:46:51;4.60;;;1.85;;
43226;SDS011;28839;52.404;9.808;2022-08-19T14:53:46;2.72;;;1.80;;
43226;SDS011;28839;52.404;9.808;2022-08-19T15:00:42;3.28;;;1.80;;
43226;SDS011;28839;52.404;9.808;2022-08-19T15:07:35;2.00;;;1.55;;
43226;SDS011;28839;52.404;9.808;2022-08-19T15:14:30;2.37;;;1.80;;
43226;SDS011;28839;52.404;9.808;2022-08-19T15:21:28;1.98;;;1.50;;
43226;SDS011;28839;52.404;9.808;2022-08-19T15:28:23;4.20;;;1.98;;
43226;SDS011;28839;52.404;9.808;2022-08-19T15:35:18;3.75;;;1.70;;
43226;SDS011;28839;52.404;9.808;2022-08-19T15:42:14;3.42;;;1.50;;
43226;SDS011;28839;52.404;9.808;2022-08-19T15:49:08;4.00;;;1.70;;
43226;SDS011;28839;52.404;9.808;2022-08-19T15:56:03;3.78;;;1.60;;
43226;SDS011;28839;52.404;9.808;2022-08-19T16:02:58;3.40;;;1.60;;
43226;SDS011;28839;52.404;9.808;2022-08-19T16:10:10;3.15;;;1.40;;
43226;SDS011;28839;52.404;9.808;2022-08-19T16:17:05;3.90;;;1.80;;
43226;SDS011;28839;52.404;9.808;2022-08-19T16:24:04;1.85;;;1.30;;
43226;SDS011;28839;52.404;9.808;2022-08-19T16:30:59;3.67;;;1.30;;
43226;SDS011;28839;52.404;9.808;2022-08-19T16:37:53;3.78;;;1.37;;
43226;SDS011;28839;52.404;9.808;2022-08-19T16:44:48;1.67;;;1.40;;
43226;SDS011;28839;52.404;9.808;2022-08-19T16:51:42;1.50;;;1.35;;
43226;SDS011;28839;52.404;9.808;2022-08-19T16:58:36;2.22;;;1.30;;
43226;SDS011;28839;52.404;9.808;2022-08-19T17:05:32;4.87;;;1.50;;
43226;SDS011;28839;52.404;9.808;2022-08-19T17:12:26;5.03;;;1.37;;
43226;SDS011;28839;52.404;9.808;2022-08-19T17:19:20;1.90;;;1.45;;
43226;SDS011;28839;52.404;9.808;2022-08-19T17:26:16;1.55;;;1.20;;
43226;SDS011;28839;52.404;9.808;2022-08-19T17:33:10;3.53;;;1.20;;
43226;SDS011;28839;52.404;9.808;2022-08-19T17:40:05;1.30;;;1.20;;
43226;SDS011;28839;52.404;9.808;2022-08-19T17:47:01;5.95;;;1.85;;
43226;SDS011;28839;52.404;9.808;2022-08-19T17:53:56;3.90;;;1.40;;
43226;SDS011;28839;52.404;9.808;2022-08-19T18:00:50;3.87;;;1.75;;
43226;SDS011;28839;52.404;9.808;2022-08-19T18:07:49;2.95;;;1.20;;
43226;SDS011;28839;52.404;9.808;2022-08-19T18:14:43;3.40;;;1.48;;
43226;SDS011;28839;52.404;9.808;2022-08-19T18:21:37;3.12;;;1.33;;
43226;SDS011;28839;52.404;9.808;2022-08-19T18:28:33;4.90;;;1.50;;
43226;SDS011;28839;52.404;9.808;2022-08-19T18:35:28;3.40;;;1.30;;
43226;SDS011;28839;52.404;9.808;2022-08-19T18:42:23;3.25;;;1.65;;
43226;SDS011;28839;52.404;9.808;2022-08-19T18:49:36;2.50;;;1.70;;
43226;SDS011;28839;52.404;9.808;2022-08-19T18:56:30;2.53;;;1.80;;
43226;SDS011;28839;52.404;9.808;2022-08-19T19:03:25;2.78;;;1.50;;
43226;SDS011;28839;52.404;9.808;2022-08-19T19:10:21;3.92;;;1.52;;
43226;SDS011;28839;52.404;9.808;2022-08-19T19:17:15;4.18;;;1.67;;
43226;SDS011;28839;52.404;9.808;2022-08-19T19:24:09;2.08;;;1.60;;
43226;SDS011;28839;52.404;9.808;2022-08-19T19:31:06;3.50;;;1.77;;
43226;SDS011;28839;52.404;9.808;2022-08-19T19:38:03;3.50;;;2.12;;
43226;SDS011;28839;52.404;9.808;2022-08-19T19:51:52;5.40;;;1.83;;
43226;SDS011;28839;52.404;9.808;2022-08-19T19:58:48;2.75;;;1.60;;
43226;SDS011;28839;52.404;9.808;2022-08-19T20:05:44;2.25;;;2.05;;
43226;SDS011;28839;52.404;9.808;2022-08-19T20:19:33;4.53;;;1.73;;
43226;SDS011;28839;52.404;9.808;2022-08-19T20:26:28;2.20;;;1.70;;
43226;SDS011;28839;52.404;9.808;2022-08-19T20:33:24;2.55;;;1.67;;
43226;SDS011;28839;52.404;9.808;2022-08-19T20:40:18;3.25;;;1.60;;
43226;SDS011;28839;52.404;9.808;2022-08-19T20:47:12;3.45;;;1.58;;
43226;SDS011;28839;52.404;9.808;2022-08-19T21:01:02;3.03;;;2.15;;
43226;SDS011;28839;52.404;9.808;2022-08-19T21:07:58;3.55;;;2.15;;
43226;SDS011;28839;52.404;9.808;2022-08-19T21:14:53;2.30;;;1.92;;
43226;SDS011;28839;52.404;9.808;2022-08-19T21:21:47;4.28;;;2.65;;
43226;SDS011;28839;52.404;9.808;2022-08-19T21:35:36;3.00;;;2.10;;
43226;SDS011;28839;52.404;9.808;2022-08-19T21:42:30;4.82;;;2.05;;
43226;SDS011;28839;52.404;9.808;2022-08-19T21:49:24;3.05;;;2.25;;
43226;SDS011;28839;52.404;9.808;2022-08-19T21:56:20;4.03;;;2.22;;
43226;SDS011;28839;52.404;9.808;2022-08-19T22:03:15;5.55;;;4.32;;
43226;SDS011;28839;52.404;9.808;2022-08-19T22:10:10;8.13;;;6.75;;
43226;SDS011;28839;52.404;9.808;2022-08-19T22:17:05;6.37;;;5.25;;
43226;SDS011;28839;52.404;9.808;2022-08-19T22:23:59;10.73;;;6.57;;
43226;SDS011;28839;52.404;9.808;2022-08-19T22:30:53;7.72;;;5.53;;
43226;SDS011;28839;52.404;9.808;2022-08-19T22:37:49;5.90;;;4.40;;
43226;SDS011;28839;52.404;9.808;2022-08-19T22:44:43;4.78;;;3.95;;
43226;SDS011;28839;52.404;9.808;2022-08-19T22:51:37;4.97;;;3.65;;
43226;SDS011;28839;52.404;9.808;2022-08-19T22:58:50;3.95;;;3.22;;
43226;SDS011;28839;52.404;9.808;2022-08-19T23:05:44;5.00;;;3.85;;
43226;SDS011;28839;52.404;9.808;2022-08-19T23:12:39;3.92;;;3.10;;
43226;SDS011;28839;52.404;9.808;2022-08-19T23:19:37;8.25;;;3.75;;
43226;SDS011;28839;52.404;9.808;2022-08-19T23:26:31;4.55;;;3.03;;
43226;SDS011;28839;52.404;9.808;2022-08-19T23:33:25;4.25;;;3.53;;
43226;SDS011;28839;52.404;9.808;2022-08-19T23:40:23;5.15;;;3.75;;
43226;SDS011;28839;52.404;9.808;2022-08-19T23:47:17;5.72;;;4.05;;
43226;SDS011;28839;52.404;9.808;2022-08-19T23:54:12;4.25;;;3.72;;
